الصفحة الرئيسية
METAR-TAF:

METAR-TAF

مطار :

Providencia Island, كولومبيا

دائرة عرض: 13-22N, خط طول: 081-21W, ارتفاع: 6 متر

مراقبة الطقس الحالي

تاريخ ووقت الإصدار 5ساعات و 41 دقيقة قبل الساعة 23:00UTC
ريح 10 عقدة من الشرق/الشمال الشرقي, الاتجاه يتراوح بين الشرق/الشمال الشرقي و الجنوب الشرقي
درجة الحرارة 28°درجة مئوية
الرطوبة 74%
ضغط 1013 hPa
الرؤية 10 كم أو أكثر
غيوم قليلة على ارتفاع 1700 قدم

METAR: SKPV 282300Z 07010KT 070V140 9999 FEW017 28/23 Q1013

زمن: 23:41 (04:41 UTC)


TAF: مفقودة

أرصاد الطقس والتوقعات من أكثر من 4000 مطار (تقارير الطقس للمطار METAR والتنبؤ بالطقس بالمطارTAF).

المحطات المتاحة هي النقط الصفراء والحمراء على الخريطة.

حرك المؤشر فوق النقطة لمعرفة اسم المحطة.

ثم انقر لمعرفة أرصاد وتوقعات الطقس.

لتغيير الخارطة: اضغط على الأزرار الخضراء مع رمز الصليب الأسود للتكبير. على الزر الأخضر مع شرطة للتصغير، أو على الأسهم الخضراء للخرائط المجاورة.


METAR-TAF: